^^
Station Historical Data
Daily Summary for June 30, 2017 Units:  English    Metric   Both
« Previous Day
Next Day »
Daily Weekly Monthly Yearly Custom
  High: Low: Average:
Temperature: 88.9 °F 72.3 °F 78.5 °F
Dew Point: 72.9 °F 62.7 °F 67.7 °F
Humidity: 91% 52% 70%
Wind Speed: 7.0mph 0.0mph 3.1mph
Wind Gust: 18.0mph - -
Wind- - SSW
Pressure: 30.02 in 29.87 in -
Precipitation: 0.03 in    
Historical Graphs
 
 
Tabular Data for June 30, 2017
Time Temperature Dew Point Pressure Wind Wind Speed Wind Gust Humidity Rainfall Rate (Hourly) Conditions
00:00 74.8 °F 64.8 °F 30.02 in SW 7.0 mph 14.0 mph 71% 0.00 in CLR
00:15 74.9 °F 64.9 °F 30.02 in SSW 6.0 mph 14.0 mph 71% 0.00 in CLR
00:30 74.6 °F 64.6 °F 30.02 in SSW 6.0 mph 12.0 mph 71% 0.00 in CLR
00:45 74.4 °F 64.8 °F 30.02 in SSW 3.0 mph 15.0 mph 72% 0.00 in CLR
01:00 74.0 °F 64.4 °F 30.02 in South 6.0 mph 13.0 mph 72% 0.00 in CLR
01:15 73.8 °F 64.6 °F 30.02 in SSW 6.0 mph 15.0 mph 73% 0.00 in CLR
01:30 73.7 °F 64.1 °F 30.02 in SSW 6.0 mph 15.0 mph 72% 0.00 in CLR
01:45 73.5 °F 63.9 °F 30.02 in SSW 6.0 mph 14.0 mph 72% 0.00 in CLR
02:00 73.4 °F 63.8 °F 30.02 in SSW 6.0 mph 15.0 mph 72% 0.00 in CLR
02:15 73.3 °F 63.7 °F 30.02 in SSW 5.0 mph 14.0 mph 72% 0.00 in CLR
02:30 73.2 °F 63.2 °F 30.01 in SW 6.0 mph 13.0 mph 71% 0.00 in CLR
02:45 73.1 °F 63.1 °F 30.01 in SSW 5.0 mph 18.0 mph 71% 0.00 in CLR
03:00 73.1 °F 63.1 °F 30.01 in South 2.0 mph 12.0 mph 71% 0.00 in CLR
03:15 73.1 °F 62.7 °F 30.00 in SSW 6.0 mph 13.0 mph 70% 0.00 in CLR
03:30 73.2 °F 62.8 °F 30.00 in SSW 5.0 mph 14.0 mph 70% 0.00 in CLR
03:45 73.2 °F 62.8 °F 30.00 in SSW 5.0 mph 16.0 mph 70% 0.00 in CLR
04:00 73.1 °F 62.7 °F 29.99 in SSW 6.0 mph 12.0 mph 70% 0.00 in CLR
04:15 73.0 °F 63.0 °F 29.99 in SSW 5.0 mph 15.0 mph 71% 0.00 in FEW
04:30 72.8 °F 62.8 °F 29.98 in South 5.0 mph 13.0 mph 71% 0.00 in FEW
04:45 72.7 °F 63.1 °F 29.99 in South 2.0 mph 12.0 mph 72% 0.00 in FEW
05:00 72.7 °F 63.1 °F 29.99 in SSW 5.0 mph 12.0 mph 72% 0.00 in FEW
05:15 72.5 °F 63.4 °F 29.99 in SSW 3.0 mph 13.0 mph 73% 0.00 in BKN
05:30 72.3 °F 63.2 °F 29.99 in SSW 1.0 mph 10.0 mph 73% 0.00 in BKN
05:45 72.3 °F 63.1 °F 29.99 in Calm   8.0 mph 73% 0.00 in BKN
06:00 72.4 °F 63.3 °F 29.99 in South 3.0 mph 7.0 mph 73% 0.00 in BKN
06:15 72.4 °F 63.6 °F 29.99 in Calm   7.0 mph 74% 0.00 in SCT
06:30 72.4 °F 63.6 °F 29.99 in South 2.0 mph 6.0 mph 74% 0.00 in SCT
06:45 72.4 °F 64.0 °F 30.00 in SSW 1.0 mph 7.0 mph 75% 0.00 in SCT
07:00 72.4 °F 64.0 °F 30.00 in South 1.0 mph 7.0 mph 75% 0.00 in SCT
07:15 72.4 °F 64.0 °F 30.00 in SSW 2.0 mph 6.0 mph 75% 0.00 in BKN
07:30 72.6 °F 64.6 °F 30.00 in SSW 1.0 mph 5.0 mph 76% 0.00 in BKN
07:45 72.7 °F 64.3 °F 30.01 in South 1.0 mph 7.0 mph 75% 0.00 in BKN
08:00 72.8 °F 64.8 °F 30.01 in SSW 2.0 mph 7.0 mph 76% 0.00 in BKN
08:15 72.9 °F 64.5 °F 30.01 in SW 3.0 mph 9.0 mph 75% 0.00 in OVC
08:30 73.2 °F 65.2 °F 30.01 in Calm   6.0 mph 76% 0.00 in OVC
08:45 74.0 °F 65.5 °F 30.01 in South 2.0 mph 6.0 mph 75% 0.00 in OVC
09:00 76.7 °F 66.5 °F 30.00 in SSW 1.0 mph 7.0 mph 71% 0.00 in OVC
09:15 77.4 °F 66.0 °F 30.01 in South 3.0 mph 9.0 mph 68% 0.00 in SCT
09:30 78.8 °F 67.0 °F 30.01 in SW 5.0 mph 9.0 mph 67% 0.00 in SCT
09:45 78.9 °F 67.0 °F 30.01 in SW 3.0 mph 9.0 mph 67% 0.00 in SCT
10:00 79.6 °F 66.8 °F 30.01 in WSW 2.0 mph 7.0 mph 65% 0.00 in SCT
10:15 80.3 °F 67.5 °F 30.01 in SW 2.0 mph 11.0 mph 65% 0.00 in SCT
10:30 80.6 °F 66.8 °F 30.01 in South 5.0 mph 11.0 mph 63% 0.00 in SCT
10:45 81.1 °F 67.7 °F 30.01 in SSW 3.0 mph 12.0 mph 64% 0.00 in SCT
11:00 81.5 °F 68.1 °F 30.01 in SSW 6.0 mph 10.0 mph 64% 0.00 in SCT
11:15 80.8 °F 67.5 °F 30.01 in SSW 2.0 mph 12.0 mph 64% 0.00 in CLR
11:30 81.8 °F 68.0 °F 30.01 in WSW 2.0 mph 8.0 mph 63% 0.00 in CLR
11:45 82.1 °F 67.8 °F 30.00 in SSW 3.0 mph 8.0 mph 62% 0.00 in CLR
12:00 82.5 °F 69.1 °F 30.00 in SW 1.0 mph 8.0 mph 64% 0.00 in CLR
12:15 83.1 °F 69.2 °F 29.99 in SW 1.0 mph 7.0 mph 63% 0.00 in BKN
12:30 84.1 °F 68.7 °F 29.99 in SW 3.0 mph 10.0 mph 60% 0.00 in BKN
12:45 85.1 °F 68.6 °F 29.98 in SSW 5.0 mph 12.0 mph 58% 0.00 in BKN
13:00 86.0 °F 69.0 °F 29.97 in SW 5.0 mph 10.0 mph 57% 0.00 in BKN
13:15 86.7 °F 68.6 °F 29.97 in SSW 3.0 mph 14.0 mph 55% 0.00 in FEW
13:45 87.5 °F 68.8 °F 29.96 in South 5.0 mph 14.0 mph 54% 0.00 in FEW
14:00 88.2 °F 68.9 °F 29.95 in SW 3.0 mph 12.0 mph 53% 0.00 in FEW
14:15 88.2 °F 68.9 °F 29.94 in SW 6.0 mph 13.0 mph 53% 0.00 in FEW
14:30 88.5 °F 68.6 °F 29.93 in SSW 7.0 mph 13.0 mph 52% 0.00 in FEW
14:45 88.9 °F 70.6 °F 29.92 in SSW 3.0 mph 12.0 mph 55% 0.00 in FEW
15:00 88.2 °F 70.6 °F 29.92 in SW 2.0 mph 14.0 mph 56% 0.00 in FEW
15:15 87.3 °F 70.7 °F 29.92 in SSW 6.0 mph 13.0 mph 58% 0.00 in FEW
15:30 85.5 °F 70.5 °F 29.91 in SW 6.0 mph 12.0 mph 61% 0.00 in FEW
15:45 86.4 °F 71.4 °F 29.91 in South 5.0 mph 12.0 mph 61% 0.00 in FEW
16:00 86.1 °F 71.6 °F 29.91 in WSW 1.0 mph 12.0 mph 62% 0.00 in FEW
16:15 85.5 °F 71.4 °F 29.90 in SSE 3.0 mph 9.0 mph 63% 0.00 in FEW
16:30 85.0 °F 71.4 °F 29.89 in SSW 5.0 mph 9.0 mph 64% 0.00 in FEW
16:45 84.6 °F 71.1 °F 29.89 in SW 3.0 mph 10.0 mph 64% 0.00 in FEW
17:00 84.7 °F 71.6 °F 29.89 in SSE 2.0 mph 10.0 mph 65% 0.00 in FEW
17:15 84.1 °F 71.5 °F 29.88 in SW 2.0 mph 10.0 mph 66% 0.00 in SCT
17:30 83.6 °F 71.5 °F 29.88 in SW 2.0 mph 8.0 mph 67% 0.00 in SCT
17:45 83.2 °F 71.1 °F 29.88 in SW 2.0 mph 7.0 mph 67% 0.00 in SCT
18:00 83.0 °F 71.3 °F 29.87 in SSW 3.0 mph 8.0 mph 68% 0.00 in SCT
18:15 83.1 °F 71.4 °F 29.88 in South 1.0 mph 9.0 mph 68% 0.00 in SCT
18:30 83.0 °F 71.4 °F 29.88 in SSW 3.0 mph 9.0 mph 68% 0.00 in SCT
18:45 83.0 °F 71.3 °F 29.89 in SSW 3.0 mph 9.0 mph 68% 0.00 in SCT
19:00 82.8 °F 71.2 °F 29.90 in SSW 2.0 mph 9.0 mph 68% 0.00 in SCT
19:15 82.7 °F 71.1 °F 29.91 in SSW 2.0 mph 10.0 mph 68% 0.00 in SCT
19:30 82.3 °F 72.0 °F 29.92 in Calm   7.0 mph 71% 0.00 in SCT
19:45 78.5 °F 72.9 °F 29.93 in NE 1.0 mph 3.0 mph 83% 0.03 in RA
20:00 76.6 °F 72.7 °F 29.93 in ENE 1.0 mph 3.0 mph 88% 0.00 in SCT
20:15 75.9 °F 72.4 °F 29.93 in NE 1.0 mph 3.0 mph 89% 0.00 in -RA
20:30 75.6 °F 72.8 °F 29.93 in Calm   3.0 mph 91% 0.00 in -RA
20:45 75.2 °F 72.4 °F 29.93 in Calm   2.0 mph 91% 0.00 in -RA
21:00 75.1 °F 72.0 °F 29.94 in Calm   3.0 mph 90% 0.00 in -RA
21:15 75.7 °F 71.9 °F 29.95 in Calm   5.0 mph 88% 0.00 in BKN
21:30 77.3 °F 71.8 °F 29.95 in SSE 2.0 mph 9.0 mph 83% 0.00 in BKN
21:45 78.4 °F 71.7 °F 29.96 in South 3.0 mph 9.0 mph 80% 0.00 in BKN
22:00 78.5 °F 71.8 °F 29.97 in SSW 6.0 mph 13.0 mph 80% 0.00 in BKN
22:15 78.5 °F 71.8 °F 29.97 in SSW 5.0 mph 9.0 mph 80% 0.00 in -RA
22:30 78.2 °F 71.5 °F 29.97 in South 2.0 mph 8.0 mph 80% 0.00 in -RA
22:45 78.3 °F 71.3 °F 29.96 in Calm   5.0 mph 79% 0.00 in -RA
23:00 78.7 °F 70.5 °F 29.97 in SSW 3.0 mph 7.0 mph 76% 0.00 in -RA
23:15 78.6 °F 70.0 °F 29.96 in South 2.0 mph 10.0 mph 75% 0.00 in BKN
23:30 77.9 °F 70.1 °F 29.96 in South 1.0 mph 6.0 mph 77% 0.00 in BKN
23:45 77.4 °F 70.4 °F 29.96 in SSW 1.0 mph 4.0 mph 79% 0.00 in BKN
TarryTown NY Weather
Compliments of Weather Underground - 1.5 mb